sensor_id;sensor_type;location;lat;lon;timestamp;P1;durP1;ratioP1;P2;durP2;ratioP2
45842;SDS011;31563;51.744;8.252;2023-08-21T00:00:26;3.38;;;1.50;;
45842;SDS011;31563;51.744;8.252;2023-08-21T00:02:54;2.83;;;1.38;;
45842;SDS011;31563;51.744;8.252;2023-08-21T00:05:22;5.43;;;1.83;;
45842;SDS011;31563;51.744;8.252;2023-08-21T00:07:49;3.15;;;1.40;;
45842;SDS011;31563;51.744;8.252;2023-08-21T00:10:17;3.13;;;1.50;;
45842;SDS011;31563;51.744;8.252;2023-08-21T00:12:46;3.42;;;1.30;;
45842;SDS011;31563;51.744;8.252;2023-08-21T00:15:14;4.22;;;1.58;;
45842;SDS011;31563;51.744;8.252;2023-08-21T00:17:43;6.20;;;1.33;;
45842;SDS011;31563;51.744;8.252;2023-08-21T00:20:11;3.92;;;1.83;;
45842;SDS011;31563;51.744;8.252;2023-08-21T00:22:39;5.43;;;1.70;;
45842;SDS011;31563;51.744;8.252;2023-08-21T00:25:07;4.05;;;1.65;;
45842;SDS011;31563;51.744;8.252;2023-08-21T00:27:35;6.63;;;2.17;;
45842;SDS011;31563;51.744;8.252;2023-08-21T00:30:05;3.25;;;1.85;;
45842;SDS011;31563;51.744;8.252;2023-08-21T00:32:33;4.95;;;2.00;;
45842;SDS011;31563;51.744;8.252;2023-08-21T00:35:02;3.00;;;1.73;;
45842;SDS011;31563;51.744;8.252;2023-08-21T00:37:31;4.88;;;1.52;;
45842;SDS011;31563;51.744;8.252;2023-08-21T00:39:59;3.45;;;1.50;;
45842;SDS011;31563;51.744;8.252;2023-08-21T00:42:27;3.75;;;1.55;;
45842;SDS011;31563;51.744;8.252;2023-08-21T00:44:55;2.20;;;1.20;;
45842;SDS011;31563;51.744;8.252;2023-08-21T00:47:24;3.53;;;1.45;;
45842;SDS011;31563;51.744;8.252;2023-08-21T00:49:52;4.40;;;1.63;;
45842;SDS011;31563;51.744;8.252;2023-08-21T00:52:20;2.38;;;1.45;;
45842;SDS011;31563;51.744;8.252;2023-08-21T00:54:48;2.33;;;0.98;;
45842;SDS011;31563;51.744;8.252;2023-08-21T00:57:17;5.65;;;1.65;;
45842;SDS011;31563;51.744;8.252;2023-08-21T00:59:45;4.25;;;1.50;;
45842;SDS011;31563;51.744;8.252;2023-08-21T01:02:14;4.10;;;1.52;;
45842;SDS011;31563;51.744;8.252;2023-08-21T01:04:44;2.92;;;1.35;;
45842;SDS011;31563;51.744;8.252;2023-08-21T01:09:43;4.35;;;1.38;;
45842;SDS011;31563;51.744;8.252;2023-08-21T01:12:17;3.10;;;1.30;;
45842;SDS011;31563;51.744;8.252;2023-08-21T01:14:52;4.30;;;1.42;;
45842;SDS011;31563;51.744;8.252;2023-08-21T01:17:25;2.78;;;1.17;;
45842;SDS011;31563;51.744;8.252;2023-08-21T01:19:57;4.47;;;1.35;;
45842;SDS011;31563;51.744;8.252;2023-08-21T01:22:26;2.92;;;1.17;;
45842;SDS011;31563;51.744;8.252;2023-08-21T01:24:56;3.17;;;1.20;;
45842;SDS011;31563;51.744;8.252;2023-08-21T01:27:24;3.25;;;1.17;;
45842;SDS011;31563;51.744;8.252;2023-08-21T01:29:52;3.83;;;1.10;;
45842;SDS011;31563;51.744;8.252;2023-08-21T01:32:21;3.90;;;1.20;;
45842;SDS011;31563;51.744;8.252;2023-08-21T01:34:57;5.13;;;1.55;;
45842;SDS011;31563;51.744;8.252;2023-08-21T01:37:26;5.20;;;1.63;;
45842;SDS011;31563;51.744;8.252;2023-08-21T01:39:58;2.55;;;1.23;;
45842;SDS011;31563;51.744;8.252;2023-08-21T01:42:26;2.20;;;0.90;;
45842;SDS011;31563;51.744;8.252;2023-08-21T01:44:54;2.40;;;1.15;;
45842;SDS011;31563;51.744;8.252;2023-08-21T01:47:22;3.47;;;1.13;;
45842;SDS011;31563;51.744;8.252;2023-08-21T01:49:50;6.07;;;1.52;;
45842;SDS011;31563;51.744;8.252;2023-08-21T01:52:18;3.15;;;1.17;;
45842;SDS011;31563;51.744;8.252;2023-08-21T01:54:47;2.35;;;1.35;;
45842;SDS011;31563;51.744;8.252;2023-08-21T01:59:45;4.50;;;1.40;;
45842;SDS011;31563;51.744;8.252;2023-08-21T02:02:14;6.63;;;1.70;;
45842;SDS011;31563;51.744;8.252;2023-08-21T02:04:41;3.13;;;0.95;;
45842;SDS011;31563;51.744;8.252;2023-08-21T02:07:09;3.55;;;1.00;;
45842;SDS011;31563;51.744;8.252;2023-08-21T02:09:37;3.33;;;1.35;;
45842;SDS011;31563;51.744;8.252;2023-08-21T02:12:05;4.68;;;1.40;;
45842;SDS011;31563;51.744;8.252;2023-08-21T02:14:34;2.70;;;1.10;;
45842;SDS011;31563;51.744;8.252;2023-08-21T02:17:02;3.05;;;1.10;;
45842;SDS011;31563;51.744;8.252;2023-08-21T02:19:31;3.87;;;1.17;;
45842;SDS011;31563;51.744;8.252;2023-08-21T02:21:59;3.65;;;1.23;;
45842;SDS011;31563;51.744;8.252;2023-08-21T02:24:27;3.90;;;1.20;;
45842;SDS011;31563;51.744;8.252;2023-08-21T02:26:54;4.55;;;1.42;;
45842;SDS011;31563;51.744;8.252;2023-08-21T02:29:22;5.72;;;2.03;;
45842;SDS011;31563;51.744;8.252;2023-08-21T02:31:51;5.80;;;1.42;;
45842;SDS011;31563;51.744;8.252;2023-08-21T02:34:19;3.55;;;1.05;;
45842;SDS011;31563;51.744;8.252;2023-08-21T02:36:47;3.00;;;0.90;;
45842;SDS011;31563;51.744;8.252;2023-08-21T02:39:15;3.13;;;1.05;;
45842;SDS011;31563;51.744;8.252;2023-08-21T02:41:43;4.35;;;1.30;;
45842;SDS011;31563;51.744;8.252;2023-08-21T02:44:11;2.97;;;1.08;;
45842;SDS011;31563;51.744;8.252;2023-08-21T02:46:39;4.05;;;1.27;;
45842;SDS011;31563;51.744;8.252;2023-08-21T02:49:08;3.80;;;1.20;;
45842;SDS011;31563;51.744;8.252;2023-08-21T02:51:36;4.25;;;1.10;;
45842;SDS011;31563;51.744;8.252;2023-08-21T02:54:04;6.07;;;1.20;;
45842;SDS011;31563;51.744;8.252;2023-08-21T02:56:32;4.72;;;1.00;;
45842;SDS011;31563;51.744;8.252;2023-08-21T02:58:59;4.55;;;1.13;;
45842;SDS011;31563;51.744;8.252;2023-08-21T03:01:27;5.25;;;1.27;;
45842;SDS011;31563;51.744;8.252;2023-08-21T03:03:55;3.25;;;0.93;;
45842;SDS011;31563;51.744;8.252;2023-08-21T03:06:25;4.70;;;1.05;;
45842;SDS011;31563;51.744;8.252;2023-08-21T03:08:52;4.03;;;1.13;;
45842;SDS011;31563;51.744;8.252;2023-08-21T03:11:20;3.10;;;1.30;;
45842;SDS011;31563;51.744;8.252;2023-08-21T03:13:48;5.25;;;1.10;;
45842;SDS011;31563;51.744;8.252;2023-08-21T03:16:16;3.83;;;0.88;;
45842;SDS011;31563;51.744;8.252;2023-08-21T03:18:54;2.78;;;0.98;;
45842;SDS011;31563;51.744;8.252;2023-08-21T03:21:22;2.63;;;0.82;;
45842;SDS011;31563;51.744;8.252;2023-08-21T03:23:54;3.47;;;1.00;;
45842;SDS011;31563;51.744;8.252;2023-08-21T03:26:22;4.00;;;0.90;;
45842;SDS011;31563;51.744;8.252;2023-08-21T03:28:50;3.10;;;0.90;;
45842;SDS011;31563;51.744;8.252;2023-08-21T03:31:18;3.13;;;0.82;;
45842;SDS011;31563;51.744;8.252;2023-08-21T03:33:46;3.70;;;1.20;;
45842;SDS011;31563;51.744;8.252;2023-08-21T03:36:14;3.95;;;1.05;;
45842;SDS011;31563;51.744;8.252;2023-08-21T03:38:43;3.72;;;1.20;;
45842;SDS011;31563;51.744;8.252;2023-08-21T03:41:11;3.50;;;0.93;;
45842;SDS011;31563;51.744;8.252;2023-08-21T03:43:39;4.47;;;1.25;;
45842;SDS011;31563;51.744;8.252;2023-08-21T03:46:07;4.10;;;1.00;;
45842;SDS011;31563;51.744;8.252;2023-08-21T03:48:35;6.72;;;1.27;;
45842;SDS011;31563;51.744;8.252;2023-08-21T03:51:03;5.75;;;1.65;;
45842;SDS011;31563;51.744;8.252;2023-08-21T03:53:31;5.55;;;1.23;;
45842;SDS011;31563;51.744;8.252;2023-08-21T03:56:00;3.55;;;1.13;;
45842;SDS011;31563;51.744;8.252;2023-08-21T03:58:28;3.13;;;1.23;;
45842;SDS011;31563;51.744;8.252;2023-08-21T04:00:56;6.30;;;1.30;;
45842;SDS011;31563;51.744;8.252;2023-08-21T04:03:23;5.72;;;1.40;;
45842;SDS011;31563;51.744;8.252;2023-08-21T04:05:52;4.82;;;1.13;;
45842;SDS011;31563;51.744;8.252;2023-08-21T04:08:22;4.80;;;1.10;;
45842;SDS011;31563;51.744;8.252;2023-08-21T04:10:50;6.15;;;1.80;;
45842;SDS011;31563;51.744;8.252;2023-08-21T04:13:20;6.30;;;1.77;;
45842;SDS011;31563;51.744;8.252;2023-08-21T04:15:48;4.28;;;1.02;;
45842;SDS011;31563;51.744;8.252;2023-08-21T04:18:17;4.70;;;1.40;;
45842;SDS011;31563;51.744;8.252;2023-08-21T04:21:04;4.25;;;1.55;;
45842;SDS011;31563;51.744;8.252;2023-08-21T04:23:32;2.88;;;1.08;;
45842;SDS011;31563;51.744;8.252;2023-08-21T04:26:00;4.45;;;1.50;;
45842;SDS011;31563;51.744;8.252;2023-08-21T04:28:30;6.45;;;1.10;;
45842;SDS011;31563;51.744;8.252;2023-08-21T04:30:59;3.40;;;1.10;;
45842;SDS011;31563;51.744;8.252;2023-08-21T04:33:28;4.40;;;1.17;;
45842;SDS011;31563;51.744;8.252;2023-08-21T04:35:56;5.63;;;1.30;;
45842;SDS011;31563;51.744;8.252;2023-08-21T04:38:24;4.68;;;1.48;;
45842;SDS011;31563;51.744;8.252;2023-08-21T04:40:51;4.28;;;1.20;;
45842;SDS011;31563;51.744;8.252;2023-08-21T04:43:19;5.90;;;1.58;;
45842;SDS011;31563;51.744;8.252;2023-08-21T04:45:49;3.88;;;1.65;;
45842;SDS011;31563;51.744;8.252;2023-08-21T04:48:19;3.95;;;1.48;;
45842;SDS011;31563;51.744;8.252;2023-08-21T04:50:47;3.30;;;1.20;;
45842;SDS011;31563;51.744;8.252;2023-08-21T04:53:15;2.92;;;1.45;;
45842;SDS011;31563;51.744;8.252;2023-08-21T04:55:43;3.33;;;1.38;;
45842;SDS011;31563;51.744;8.252;2023-08-21T04:58:11;6.50;;;1.98;;
45842;SDS011;31563;51.744;8.252;2023-08-21T05:00:39;22.83;;;7.38;;
45842;SDS011;31563;51.744;8.252;2023-08-21T05:03:08;14.77;;;4.55;;
45842;SDS011;31563;51.744;8.252;2023-08-21T05:05:36;11.23;;;3.92;;
45842;SDS011;31563;51.744;8.252;2023-08-21T05:08:05;9.85;;;2.53;;
45842;SDS011;31563;51.744;8.252;2023-08-21T05:10:33;6.37;;;1.97;;
45842;SDS011;31563;51.744;8.252;2023-08-21T05:13:01;7.97;;;2.35;;
45842;SDS011;31563;51.744;8.252;2023-08-21T05:15:31;6.57;;;1.67;;
45842;SDS011;31563;51.744;8.252;2023-08-21T05:17:59;5.20;;;1.65;;
45842;SDS011;31563;51.744;8.252;2023-08-21T05:20:28;5.05;;;1.38;;
45842;SDS011;31563;51.744;8.252;2023-08-21T05:22:56;6.68;;;1.40;;
45842;SDS011;31563;51.744;8.252;2023-08-21T05:25:24;5.90;;;1.35;;
45842;SDS011;31563;51.744;8.252;2023-08-21T05:27:52;5.00;;;1.70;;
45842;SDS011;31563;51.744;8.252;2023-08-21T05:30:20;3.78;;;1.15;;
45842;SDS011;31563;51.744;8.252;2023-08-21T05:32:47;4.50;;;1.08;;
45842;SDS011;31563;51.744;8.252;2023-08-21T05:35:15;4.70;;;1.40;;
45842;SDS011;31563;51.744;8.252;2023-08-21T05:37:45;4.30;;;1.02;;
45842;SDS011;31563;51.744;8.252;2023-08-21T05:40:13;1.80;;;0.80;;
45842;SDS011;31563;51.744;8.252;2023-08-21T05:42:41;3.85;;;1.00;;
45842;SDS011;31563;51.744;8.252;2023-08-21T05:45:09;3.90;;;1.10;;
45842;SDS011;31563;51.744;8.252;2023-08-21T05:47:36;6.97;;;1.23;;
45842;SDS011;31563;51.744;8.252;2023-08-21T05:50:05;7.45;;;1.67;;
45842;SDS011;31563;51.744;8.252;2023-08-21T05:52:33;7.93;;;1.25;;
45842;SDS011;31563;51.744;8.252;2023-08-21T05:55:04;8.27;;;1.30;;
45842;SDS011;31563;51.744;8.252;2023-08-21T05:57:32;5.15;;;1.30;;
45842;SDS011;31563;51.744;8.252;2023-08-21T06:00:00;5.50;;;1.30;;
45842;SDS011;31563;51.744;8.252;2023-08-21T06:02:28;3.60;;;1.20;;
45842;SDS011;31563;51.744;8.252;2023-08-21T06:04:56;5.35;;;1.40;;
45842;SDS011;31563;51.744;8.252;2023-08-21T06:07:24;3.33;;;1.13;;
45842;SDS011;31563;51.744;8.252;2023-08-21T06:09:52;4.97;;;1.10;;
45842;SDS011;31563;51.744;8.252;2023-08-21T06:12:21;3.05;;;0.93;;
45842;SDS011;31563;51.744;8.252;2023-08-21T06:14:50;3.35;;;1.33;;
45842;SDS011;31563;51.744;8.252;2023-08-21T06:17:18;3.92;;;1.02;;
45842;SDS011;31563;51.744;8.252;2023-08-21T06:19:46;5.53;;;1.23;;
45842;SDS011;31563;51.744;8.252;2023-08-21T06:22:13;6.53;;;1.20;;
45842;SDS011;31563;51.744;8.252;2023-08-21T06:24:41;7.25;;;1.55;;
45842;SDS011;31563;51.744;8.252;2023-08-21T06:27:09;5.45;;;1.42;;
45842;SDS011;31563;51.744;8.252;2023-08-21T06:29:38;5.57;;;1.40;;
45842;SDS011;31563;51.744;8.252;2023-08-21T06:32:07;5.32;;;1.42;;
45842;SDS011;31563;51.744;8.252;2023-08-21T06:34:35;5.50;;;1.33;;
45842;SDS011;31563;51.744;8.252;2023-08-21T06:37:04;6.70;;;1.07;;
45842;SDS011;31563;51.744;8.252;2023-08-21T06:39:33;5.95;;;1.25;;
45842;SDS011;31563;51.744;8.252;2023-08-21T06:42:01;4.97;;;1.45;;
45842;SDS011;31563;51.744;8.252;2023-08-21T06:44:29;2.65;;;1.38;;
45842;SDS011;31563;51.744;8.252;2023-08-21T06:46:58;3.92;;;1.02;;
45842;SDS011;31563;51.744;8.252;2023-08-21T06:49:27;4.75;;;1.17;;
45842;SDS011;31563;51.744;8.252;2023-08-21T06:51:55;5.30;;;1.00;;
45842;SDS011;31563;51.744;8.252;2023-08-21T06:54:23;2.80;;;1.08;;
45842;SDS011;31563;51.744;8.252;2023-08-21T06:56:51;4.05;;;1.15;;
45842;SDS011;31563;51.744;8.252;2023-08-21T06:59:18;4.97;;;1.00;;
45842;SDS011;31563;51.744;8.252;2023-08-21T07:01:46;2.40;;;0.90;;
45842;SDS011;31563;51.744;8.252;2023-08-21T07:04:15;3.78;;;1.23;;
45842;SDS011;31563;51.744;8.252;2023-08-21T07:06:43;2.90;;;1.13;;
45842;SDS011;31563;51.744;8.252;2023-08-21T07:09:11;2.78;;;0.73;;
45842;SDS011;31563;51.744;8.252;2023-08-21T07:11:39;3.63;;;1.35;;
45842;SDS011;31563;51.744;8.252;2023-08-21T07:14:07;4.50;;;1.38;;
45842;SDS011;31563;51.744;8.252;2023-08-21T07:16:35;3.58;;;1.15;;
45842;SDS011;31563;51.744;8.252;2023-08-21T07:19:03;3.67;;;1.00;;
45842;SDS011;31563;51.744;8.252;2023-08-21T07:21:32;5.65;;;1.70;;
45842;SDS011;31563;51.744;8.252;2023-08-21T07:24:02;4.13;;;1.33;;
45842;SDS011;31563;51.744;8.252;2023-08-21T07:26:30;5.30;;;1.02;;
45842;SDS011;31563;51.744;8.252;2023-08-21T07:28:58;4.10;;;1.20;;
45842;SDS011;31563;51.744;8.252;2023-08-21T07:31:26;3.05;;;1.50;;
45842;SDS011;31563;51.744;8.252;2023-08-21T07:33:54;3.33;;;1.17;;
45842;SDS011;31563;51.744;8.252;2023-08-21T07:36:22;3.80;;;1.17;;
45842;SDS011;31563;51.744;8.252;2023-08-21T07:38:51;4.47;;;1.55;;
45842;SDS011;31563;51.744;8.252;2023-08-21T07:41:19;5.28;;;1.20;;
45842;SDS011;31563;51.744;8.252;2023-08-21T07:43:48;2.42;;;1.02;;
45842;SDS011;31563;51.744;8.252;2023-08-21T07:46:16;1.55;;;1.00;;
45842;SDS011;31563;51.744;8.252;2023-08-21T07:48:45;3.50;;;1.10;;
45842;SDS011;31563;51.744;8.252;2023-08-21T07:51:13;2.90;;;1.10;;
45842;SDS011;31563;51.744;8.252;2023-08-21T07:53:41;2.58;;;0.75;;
45842;SDS011;31563;51.744;8.252;2023-08-21T07:56:10;2.35;;;0.82;;
45842;SDS011;31563;51.744;8.252;2023-08-21T07:58:38;7.18;;;1.33;;
45842;SDS011;31563;51.744;8.252;2023-08-21T08:01:06;3.80;;;0.95;;
45842;SDS011;31563;51.744;8.252;2023-08-21T08:03:34;4.97;;;1.00;;
45842;SDS011;31563;51.744;8.252;2023-08-21T08:06:02;4.40;;;1.30;;
45842;SDS011;31563;51.744;8.252;2023-08-21T08:08:33;3.22;;;1.08;;
45842;SDS011;31563;51.744;8.252;2023-08-21T08:11:01;2.47;;;1.00;;
45842;SDS011;31563;51.744;8.252;2023-08-21T08:13:31;6.13;;;0.98;;
45842;SDS011;31563;51.744;8.252;2023-08-21T08:15:59;3.78;;;0.95;;
45842;SDS011;31563;51.744;8.252;2023-08-21T08:18:27;5.95;;;1.23;;
45842;SDS011;31563;51.744;8.252;2023-08-21T08:20:55;3.53;;;1.15;;
45842;SDS011;31563;51.744;8.252;2023-08-21T08:23:23;3.10;;;1.15;;
45842;SDS011;31563;51.744;8.252;2023-08-21T08:25:51;3.78;;;1.23;;
45842;SDS011;31563;51.744;8.252;2023-08-21T08:28:20;5.95;;;1.08;;
45842;SDS011;31563;51.744;8.252;2023-08-21T08:30:49;6.70;;;1.60;;
45842;SDS011;31563;51.744;8.252;2023-08-21T08:33:17;6.78;;;1.25;;
45842;SDS011;31563;51.744;8.252;2023-08-21T08:35:45;5.63;;;0.95;;
45842;SDS011;31563;51.744;8.252;2023-08-21T08:38:13;3.78;;;0.80;;
45842;SDS011;31563;51.744;8.252;2023-08-21T08:40:42;7.13;;;1.10;;
45842;SDS011;31563;51.744;8.252;2023-08-21T08:43:12;4.35;;;1.15;;
45842;SDS011;31563;51.744;8.252;2023-08-21T08:45:41;6.68;;;1.00;;
45842;SDS011;31563;51.744;8.252;2023-08-21T08:48:11;3.35;;;0.85;;
45842;SDS011;31563;51.744;8.252;2023-08-21T08:50:40;4.32;;;1.00;;
45842;SDS011;31563;51.744;8.252;2023-08-21T08:53:08;3.30;;;1.00;;
45842;SDS011;31563;51.744;8.252;2023-08-21T08:55:42;3.03;;;0.90;;
45842;SDS011;31563;51.744;8.252;2023-08-21T08:58:10;2.83;;;1.02;;
45842;SDS011;31563;51.744;8.252;2023-08-21T09:00:38;2.78;;;0.60;;
45842;SDS011;31563;51.744;8.252;2023-08-21T09:03:07;4.60;;;0.70;;
45842;SDS011;31563;51.744;8.252;2023-08-21T09:05:38;4.10;;;1.00;;
45842;SDS011;31563;51.744;8.252;2023-08-21T09:08:10;3.13;;;0.90;;
45842;SDS011;31563;51.744;8.252;2023-08-21T09:10:38;6.30;;;0.80;;
45842;SDS011;31563;51.744;8.252;2023-08-21T09:13:11;4.22;;;1.02;;
45842;SDS011;31563;51.744;8.252;2023-08-21T09:15:41;3.55;;;0.80;;
45842;SDS011;31563;51.744;8.252;2023-08-21T09:18:09;4.18;;;1.30;;
45842;SDS011;31563;51.744;8.252;2023-08-21T09:20:40;4.38;;;0.75;;
45842;SDS011;31563;51.744;8.252;2023-08-21T09:23:09;3.17;;;0.80;;
45842;SDS011;31563;51.744;8.252;2023-08-21T09:25:40;2.72;;;0.77;;
45842;SDS011;31563;51.744;8.252;2023-08-21T09:28:10;3.55;;;0.98;;
45842;SDS011;31563;51.744;8.252;2023-08-21T09:30:45;2.65;;;0.75;;
45842;SDS011;31563;51.744;8.252;2023-08-21T09:33:16;4.28;;;0.98;;
45842;SDS011;31563;51.744;8.252;2023-08-21T09:35:45;2.38;;;0.82;;
45842;SDS011;31563;51.744;8.252;2023-08-21T09:38:13;2.63;;;0.70;;
45842;SDS011;31563;51.744;8.252;2023-08-21T09:40:42;4.93;;;0.95;;
45842;SDS011;31563;51.744;8.252;2023-08-21T09:43:11;2.58;;;0.70;;
45842;SDS011;31563;51.744;8.252;2023-08-21T09:45:39;3.15;;;0.90;;
45842;SDS011;31563;51.744;8.252;2023-08-21T09:48:07;5.78;;;1.17;;
45842;SDS011;31563;51.744;8.252;2023-08-21T09:53:06;4.85;;;1.27;;
45842;SDS011;31563;51.744;8.252;2023-08-21T09:55:35;2.38;;;0.70;;
45842;SDS011;31563;51.744;8.252;2023-08-21T09:58:03;3.70;;;1.10;;
45842;SDS011;31563;51.744;8.252;2023-08-21T10:00:31;4.43;;;0.88;;
45842;SDS011;31563;51.744;8.252;2023-08-21T10:03:01;4.95;;;1.00;;
45842;SDS011;31563;51.744;8.252;2023-08-21T10:05:31;8.52;;;1.10;;
45842;SDS011;31563;51.744;8.252;2023-08-21T10:08:00;6.10;;;0.88;;
45842;SDS011;31563;51.744;8.252;2023-08-21T10:10:32;2.75;;;0.80;;
45842;SDS011;31563;51.744;8.252;2023-08-21T10:13:01;3.60;;;0.60;;
45842;SDS011;31563;51.744;8.252;2023-08-21T10:15:31;5.05;;;1.05;;
45842;SDS011;31563;51.744;8.252;2023-08-21T10:20:47;4.28;;;1.00;;
45842;SDS011;31563;51.744;8.252;2023-08-21T10:23:25;3.33;;;0.90;;
45842;SDS011;31563;51.744;8.252;2023-08-21T10:25:55;3.95;;;0.90;;
45842;SDS011;31563;51.744;8.252;2023-08-21T10:28:41;3.42;;;0.90;;
45842;SDS011;31563;51.744;8.252;2023-08-21T10:31:28;2.75;;;0.75;;
45842;SDS011;31563;51.744;8.252;2023-08-21T10:33:58;3.28;;;0.70;;
45842;SDS011;31563;51.744;8.252;2023-08-21T10:39:36;2.83;;;0.90;;
45842;SDS011;31563;51.744;8.252;2023-08-21T10:42:08;6.85;;;1.20;;
45842;SDS011;31563;51.744;8.252;2023-08-21T10:44:46;6.22;;;1.25;;
45842;SDS011;31563;51.744;8.252;2023-08-21T10:47:18;2.85;;;0.98;;
45842;SDS011;31563;51.744;8.252;2023-08-21T10:49:48;4.10;;;1.00;;
45842;SDS011;31563;51.744;8.252;2023-08-21T10:52:19;3.13;;;1.00;;
45842;SDS011;31563;51.744;8.252;2023-08-21T10:54:50;5.97;;;1.20;;
45842;SDS011;31563;51.744;8.252;2023-08-21T10:57:20;4.07;;;0.80;;
45842;SDS011;31563;51.744;8.252;2023-08-21T10:59:52;3.53;;;1.10;;
45842;SDS011;31563;51.744;8.252;2023-08-21T11:02:22;3.70;;;1.17;;
45842;SDS011;31563;51.744;8.252;2023-08-21T11:04:50;4.83;;;1.03;;
45842;SDS011;31563;51.744;8.252;2023-08-21T11:07:19;4.97;;;1.70;;
45842;SDS011;31563;51.744;8.252;2023-08-21T11:09:47;4.38;;;0.90;;
45842;SDS011;31563;51.744;8.252;2023-08-21T11:12:16;3.38;;;0.85;;
45842;SDS011;31563;51.744;8.252;2023-08-21T11:14:46;3.63;;;1.20;;
45842;SDS011;31563;51.744;8.252;2023-08-21T11:17:14;3.92;;;1.17;;
45842;SDS011;31563;51.744;8.252;2023-08-21T11:19:44;3.13;;;1.30;;
45842;SDS011;31563;51.744;8.252;2023-08-21T11:22:14;4.25;;;1.15;;
45842;SDS011;31563;51.744;8.252;2023-08-21T11:24:42;6.03;;;1.10;;
45842;SDS011;31563;51.744;8.252;2023-08-21T11:27:12;3.15;;;0.80;;
45842;SDS011;31563;51.744;8.252;2023-08-21T11:29:42;2.60;;;0.77;;
45842;SDS011;31563;51.744;8.252;2023-08-21T11:32:16;3.47;;;0.80;;
45842;SDS011;31563;51.744;8.252;2023-08-21T11:34:47;3.83;;;1.02;;
45842;SDS011;31563;51.744;8.252;2023-08-21T11:37:17;2.78;;;0.90;;
45842;SDS011;31563;51.744;8.252;2023-08-21T11:39:47;2.13;;;1.00;;
45842;SDS011;31563;51.744;8.252;2023-08-21T11:42:18;4.50;;;0.80;;
45842;SDS011;31563;51.744;8.252;2023-08-21T11:44:47;3.25;;;0.88;;
45842;SDS011;31563;51.744;8.252;2023-08-21T11:47:19;3.25;;;1.13;;
45842;SDS011;31563;51.744;8.252;2023-08-21T11:49:47;3.47;;;0.90;;
45842;SDS011;31563;51.744;8.252;2023-08-21T11:52:17;3.47;;;1.25;;
45842;SDS011;31563;51.744;8.252;2023-08-21T11:54:47;2.90;;;0.93;;
45842;SDS011;31563;51.744;8.252;2023-08-21T11:57:17;3.00;;;1.10;;
45842;SDS011;31563;51.744;8.252;2023-08-21T11:59:49;5.15;;;0.85;;
45842;SDS011;31563;51.744;8.252;2023-08-21T12:02:21;2.58;;;0.95;;
45842;SDS011;31563;51.744;8.252;2023-08-21T12:04:53;2.80;;;0.85;;
45842;SDS011;31563;51.744;8.252;2023-08-21T12:07:21;4.13;;;0.90;;
45842;SDS011;31563;51.744;8.252;2023-08-21T12:09:49;1.85;;;0.70;;
45842;SDS011;31563;51.744;8.252;2023-08-21T12:12:17;5.43;;;0.88;;
45842;SDS011;31563;51.744;8.252;2023-08-21T12:14:45;5.72;;;1.02;;
45842;SDS011;31563;51.744;8.252;2023-08-21T12:17:13;4.47;;;1.05;;
45842;SDS011;31563;51.744;8.252;2023-08-21T12:19:42;3.15;;;0.90;;
45842;SDS011;31563;51.744;8.252;2023-08-21T12:24:39;3.03;;;0.93;;
45842;SDS011;31563;51.744;8.252;2023-08-21T12:27:09;5.30;;;1.13;;
45842;SDS011;31563;51.744;8.252;2023-08-21T12:29:37;3.75;;;1.00;;
45842;SDS011;31563;51.744;8.252;2023-08-21T12:32:05;3.22;;;0.90;;
45842;SDS011;31563;51.744;8.252;2023-08-21T12:34:33;2.03;;;0.73;;
45842;SDS011;31563;51.744;8.252;2023-08-21T12:37:02;3.45;;;0.95;;
45842;SDS011;31563;51.744;8.252;2023-08-21T12:39:30;4.03;;;1.20;;
45842;SDS011;31563;51.744;8.252;2023-08-21T12:41:58;5.15;;;1.05;;
45842;SDS011;31563;51.744;8.252;2023-08-21T12:44:26;2.33;;;0.88;;
45842;SDS011;31563;51.744;8.252;2023-08-21T12:46:54;1.88;;;0.95;;
45842;SDS011;31563;51.744;8.252;2023-08-21T12:49:22;3.58;;;1.25;;
45842;SDS011;31563;51.744;8.252;2023-08-21T12:51:50;1.95;;;0.90;;
45842;SDS011;31563;51.744;8.252;2023-08-21T12:54:19;3.50;;;1.35;;
45842;SDS011;31563;51.744;8.252;2023-08-21T12:59:14;4.50;;;1.48;;
45842;SDS011;31563;51.744;8.252;2023-08-21T13:01:45;3.85;;;1.58;;
45842;SDS011;31563;51.744;8.252;2023-08-21T13:04:13;2.17;;;1.45;;
45842;SDS011;31563;51.744;8.252;2023-08-21T13:06:41;2.88;;;1.10;;
45842;SDS011;31563;51.744;8.252;2023-08-21T13:09:09;4.25;;;1.80;;
45842;SDS011;31563;51.744;8.252;2023-08-21T13:11:39;2.80;;;1.27;;
45842;SDS011;31563;51.744;8.252;2023-08-21T13:16:34;4.00;;;1.50;;
45842;SDS011;31563;51.744;8.252;2023-08-21T13:19:02;2.63;;;1.40;;
45842;SDS011;31563;51.744;8.252;2023-08-21T13:21:30;3.28;;;1.58;;
45842;SDS011;31563;51.744;8.252;2023-08-21T13:23:58;3.33;;;1.30;;
45842;SDS011;31563;51.744;8.252;2023-08-21T13:26:29;5.38;;;1.50;;
45842;SDS011;31563;51.744;8.252;2023-08-21T13:28:59;4.18;;;1.50;;
45842;SDS011;31563;51.744;8.252;2023-08-21T13:33:55;2.95;;;1.42;;
45842;SDS011;31563;51.744;8.252;2023-08-21T13:36:23;2.33;;;1.17;;
45842;SDS011;31563;51.744;8.252;2023-08-21T13:38:55;2.28;;;1.08;;
45842;SDS011;31563;51.744;8.252;2023-08-21T13:41:23;3.60;;;1.40;;
45842;SDS011;31563;51.744;8.252;2023-08-21T13:43:51;3.75;;;1.25;;
45842;SDS011;31563;51.744;8.252;2023-08-21T13:46:22;2.20;;;1.40;;
45842;SDS011;31563;51.744;8.252;2023-08-21T13:51:17;2.92;;;0.93;;
45842;SDS011;31563;51.744;8.252;2023-08-21T13:53:47;2.55;;;1.20;;
45842;SDS011;31563;51.744;8.252;2023-08-21T13:56:15;3.22;;;1.00;;
45842;SDS011;31563;51.744;8.252;2023-08-21T13:58:43;3.20;;;1.00;;
45842;SDS011;31563;51.744;8.252;2023-08-21T14:01:11;2.50;;;0.88;;
45842;SDS011;31563;51.744;8.252;2023-08-21T14:03:41;3.80;;;1.20;;
45842;SDS011;31563;51.744;8.252;2023-08-21T14:06:09;3.35;;;0.90;;
45842;SDS011;31563;51.744;8.252;2023-08-21T14:08:38;2.83;;;1.10;;
45842;SDS011;31563;51.744;8.252;2023-08-21T14:11:06;2.40;;;0.90;;
45842;SDS011;31563;51.744;8.252;2023-08-21T14:13:34;5.63;;;1.00;;
45842;SDS011;31563;51.744;8.252;2023-08-21T14:16:02;4.60;;;1.20;;
45842;SDS011;31563;51.744;8.252;2023-08-21T14:18:30;3.88;;;0.93;;
45842;SDS011;31563;51.744;8.252;2023-08-21T14:20:59;2.05;;;0.80;;
45842;SDS011;31563;51.744;8.252;2023-08-21T14:23:27;2.72;;;0.90;;
45842;SDS011;31563;51.744;8.252;2023-08-21T14:25:59;3.30;;;0.80;;
45842;SDS011;31563;51.744;8.252;2023-08-21T14:28:27;4.40;;;0.90;;
45842;SDS011;31563;51.744;8.252;2023-08-21T14:30:55;3.00;;;1.13;;
45842;SDS011;31563;51.744;8.252;2023-08-21T14:33:23;2.43;;;0.80;;
45842;SDS011;31563;51.744;8.252;2023-08-21T14:35:51;4.30;;;1.10;;
45842;SDS011;31563;51.744;8.252;2023-08-21T14:38:20;3.53;;;1.15;;
45842;SDS011;31563;51.744;8.252;2023-08-21T14:40:48;4.28;;;1.25;;
45842;SDS011;31563;51.744;8.252;2023-08-21T14:43:18;4.28;;;1.20;;
45842;SDS011;31563;51.744;8.252;2023-08-21T14:45:46;2.83;;;1.17;;
45842;SDS011;31563;51.744;8.252;2023-08-21T14:48:14;2.92;;;1.20;;
45842;SDS011;31563;51.744;8.252;2023-08-21T14:50:42;4.40;;;1.02;;
45842;SDS011;31563;51.744;8.252;2023-08-21T14:53:10;2.63;;;0.88;;
45842;SDS011;31563;51.744;8.252;2023-08-21T14:55:39;5.70;;;1.42;;
45842;SDS011;31563;51.744;8.252;2023-08-21T14:58:07;4.28;;;1.33;;
45842;SDS011;31563;51.744;8.252;2023-08-21T15:03:03;6.45;;;1.40;;
45842;SDS011;31563;51.744;8.252;2023-08-21T15:05:31;2.83;;;1.10;;
45842;SDS011;31563;51.744;8.252;2023-08-21T15:07:59;5.90;;;1.43;;
45842;SDS011;31563;51.744;8.252;2023-08-21T15:10:27;3.28;;;1.17;;
45842;SDS011;31563;51.744;8.252;2023-08-21T15:12:57;7.53;;;1.20;;
45842;SDS011;31563;51.744;8.252;2023-08-21T15:15:25;4.93;;;0.90;;
45842;SDS011;31563;51.744;8.252;2023-08-21T15:17:52;3.67;;;1.00;;
45842;SDS011;31563;51.744;8.252;2023-08-21T15:20:20;1.95;;;0.70;;
45842;SDS011;31563;51.744;8.252;2023-08-21T15:22:48;6.23;;;1.00;;
45842;SDS011;31563;51.744;8.252;2023-08-21T15:25:17;3.10;;;0.90;;